• Join FlightAware (Why Join?)
  • Login
  • US Flag 
02:42AM EDT


 

Airport Tracker/Info


-or-


 

Live Flight TrackerFlight Track Log ✈ TCF642 ✈ 02-Apr-2014 ✈ KORD - KOMA

Flight Track Log - Related Links

Times and Time Zones

All times are in EDT time to prevent confusion due to time zone crossing. See the TCF642 flight status page for this flight to view local times or setup timezone preferences in your user account.

Time Position Orientation Groundspeed Altitude Reporting Facility
EDT Latitude Longitude Course Direction KTS MPH feet Rate Location/Type
10:56PM 41.9500 -87.8667 264° West 187 215 2,600  Level Chicago TRACON
10:57PM 41.9000 -87.9333 225° Southwest 258 297 4,700 1,200 Climbing Chicago TRACON
10:58PM 41.8333 -88.0000 217° Southwest 272 313 5,100 1,200 Climbing Chicago TRACON
11:00PM 41.7922 -88.1050 242° Southwest 269 310 7,500 2,520 Climbing Chicago Center
11:01PM 41.7933 -88.2011 271° West 262 302 11,000 3,060 Climbing Chicago Center
11:02PM 41.9176 -88.6379 264° West  Level FlightAware Approximate
11:02PM 41.7917 -88.3014 269° West 265 305 13,800  Level Chicago Center
11:03PM 41.8147 -88.4089 286° West 276 318 16,700 2,460 Climbing Chicago Center
11:04PM 41.8372 -88.4947 289° West 269 310 18,900 2,280 Climbing Chicago Center
11:05PM 41.8603 -88.5922 288° West 271 312 21,400 2,160 Climbing Chicago Center
11:06PM 41.8861 -88.6956 289° West 288 331 23,300 1,860 Climbing Chicago Center
11:07PM 41.9117 -88.8042 288° West 300 345 25,200 1,740 Climbing Chicago Center
11:08PM 41.9094 -88.9194 269° West 305 351 26,900 1,860 Climbing Chicago Center
11:09PM 41.9053 -89.0594 268° West 311 358 29,000 1,680 Climbing Chicago Center
11:10PM 41.9011 -89.1764 267° West 312 359 30,400 1,200 Climbing Chicago Center
11:11PM 41.8917 -89.2936 264° West 313 360 31,500 1,080 Climbing Chicago Center
11:12PM 41.8797 -89.4139 262° West 319 367 32,700 960 Climbing Chicago Center
11:13PM 41.8686 -89.5350 263° West 325 374 33,500 600 Climbing Chicago Center
11:14PM 41.8561 -89.6589 262° West 331 381 34,000 240 Climbing Chicago Center
11:15PM 41.8436 -89.7878 263° West 345 397 34,000  Level Chicago Center
11:16PM 41.8336 -89.9133 264° West 345 397 34,000  Level Chicago Center
11:17PM 41.8217 -90.0425 263° West 349 402 34,000  Level Chicago Center
11:18PM 41.8114 -90.1683 264° West 346 398 34,000  Level Chicago Center
11:19PM 41.7992 -90.2953 263° West 346 398 34,000  Level Chicago Center
11:20PM 41.7853 -90.4342 262° West 356 410 34,000  Level Chicago Center
11:21PM 41.7731 -90.5611 263° West 349 402 34,000  Level Chicago Center
11:22PM 41.7597 -90.7069 263° West 349 402 34,000  Level Chicago Center
11:23PM 41.7464 -90.8339 262° West 348 400 34,000  Level Chicago Center
11:24PM 41.7347 -90.9617 263° West 348 400 34,000  Level Chicago Center
11:25PM 41.7219 -91.0883 262° West 348 400 34,000  Level Chicago Center
11:26PM 41.7147 -91.2175 266° West 348 400 34,000  Level Chicago Center
11:27PM 41.7056 -91.3442 265° West 347 399 34,000  Level Chicago Center
11:28PM 41.6967 -91.4722 265° West 347 399 34,000  Level Chicago Center
11:29PM 41.6883 -91.6006 265° West 347 399 34,000  Level Chicago Center
11:31PM 41.6736 -91.8022 264° West 346 398 34,000  Level Chicago Center
11:32PM 41.6647 -91.9300 265° West 346 398 34,000  Level Chicago Center
11:33PM 41.6550 -92.0572 264° West 346 398 34,000  Level Chicago Center
11:34PM 41.6447 -92.1847 264° West 346 398 34,000  Level Chicago Center
11:35PM 41.6128 -92.3014 250° West 346 398 34,000  Level Chicago Center
11:36PM 41.5664 -92.4467 247° West 354 407 34,000  Level Chicago Center
11:37PM 41.5281 -92.5628 246° West 348 400 34,000  Level Chicago Center
11:38PM 41.4908 -92.6803 247° West 347 399 34,000  Level Chicago Center
11:38PM 41.4719 -92.7364 246° West 346 398 34,000  Level Minneapolis Center
11:39PM 41.4511 -92.8606 257° West 346 398 34,000  Level Minneapolis Center
11:40PM 41.4456 -93.0156 267° West 351 404 34,000  Level Minneapolis Center
11:41PM 41.4403 -93.1425 267° West 351 404 34,000  Level Minneapolis Center
11:42PM 41.4350 -93.2697 267° West 350 403 34,000  Level Minneapolis Center
11:43PM 41.4306 -93.3981 267° West 350 403 34,000  Level Minneapolis Center
11:44PM 41.4250 -93.5269 267° West 350 403 34,000  Level Minneapolis Center
11:45PM 41.4189 -93.6561 266° West 350 403 34,000  Level Minneapolis Center
11:46PM 41.4139 -93.7844 267° West 350 403 34,000  Level Minneapolis Center
11:47PM 41.4078 -93.9117 266° West 350 403 34,000  Level Minneapolis Center
11:49PM 41.4067 -94.0669 270° West 350 403 34,000  Level Minneapolis Center
11:50PM 41.4122 -94.1967 273° West 351 404 34,000 -900 Level Minneapolis Center
11:51PM 41.4164 -94.3156 273° West 351 404 32,200 -2,100 Descending Minneapolis Center
11:52PM 41.4206 -94.4469 272° West 354 407 29,800 -2,220 Descending Minneapolis Center
11:53PM 41.4242 -94.5756 272° West 351 404 27,700 -2,160 Descending Minneapolis Center
11:54PM 41.4275 -94.7017 272° West 346 398 25,500 -2,100 Descending Minneapolis Center
11:55PM 41.4308 -94.8258 272° West 340 391 23,500 -2,280 Descending Minneapolis Center
11:55PM 41.4467 -94.9225 282° West 331 381 22,000 -2,100 Descending Minneapolis Center
11:56PM 41.4339 -94.9464 234° Southwest 334 384 21,400 -1,980 Descending Minneapolis Center
11:57PM 41.4375 -95.0853 272° West 318 366 19,100 -2,040 Descending Minneapolis Center
11:58PM 41.4400 -95.1994 272° West 312 359 17,300 -1,800 Descending Minneapolis Center
11:59PM 41.4636 -95.3269 284° West 283 326 15,300 -1,680 Descending Minneapolis Center
12:00AM 41.4747 -95.4256 279° West 265 305 13,700 -1,980 Descending Minneapolis Center
12:01AM 41.4783 -95.4994 274° West 268 308 11,600 -2,280 Descending Minneapolis Center
12:02AM 41.4869 -95.6003 277° West 268 308 9,400 -2,040 Descending Minneapolis Center
12:03AM 41.4956 -95.7292 275° West 272 313 7,300 -1,980 Descending Minneapolis Center
12:04AM 41.5003 -95.8317 274° West 272 313 5,300 -1,800 Descending Minneapolis Center
12:05AM 41.5056 -95.9011 276° West 270 311 3,900 -1,140 Descending Minneapolis Center
12:06AM 41.5003 -95.9844 265° West 250 288 3,200 -480 Descending Minneapolis Center
12:07AM 41.4533 -96.0294 216° Southwest 242 278 3,000 -120 Descending Minneapolis Center
12:08AM 41.4092 -95.9975 152° Southeast 201 231 3,000 -360 Level Minneapolis Center
12:09AM 41.3600 -95.9564 148° Southeast 161 185 2,300 -720 Descending Minneapolis Center
12:10AM 41.3375 -95.9264 135° Southeast 164 189 1,600 -720 Descending Minneapolis Center
12:11AM 41.3067 -95.8989 146° Southeast 147 169 1,000 -600 Descending Minneapolis Center
12:13AM 41.3032 -95.8941 143° Southeast  Level Estimated